Time;durP1;ratioP1;P1;durP2;ratioP2;P2;SDS_P1;SDS_P2;PMS_P1;PMS_P2;Temp;Humidity;BMP_temperature;BMP_pressure;BME280_temperature;BME280_humidity;BME280_pressure;Samples;Min_cycle;Max_cycle;Signal;HPM_P1;HPM_P2
2023/07/04 00:01:46;;;;;;;15.13;2.90;;;;;;;;;;5013385;28;20048;-74
2023/07/04 00:04:12;;;;;;;11.73;3.03;;;;;;;;;;4998507;28;20061;-73
2023/07/04 00:06:39;;;;;;;10.40;2.50;;;;;;;;;;5006324;28;20042;-73
2023/07/04 00:09:07;;;;;;;12.00;2.80;;;;;;;;;;5014500;28;20045;-73
2023/07/04 00:11:33;;;;;;;11.90;3.30;;;;;;;;;;5015857;28;20050;-72
2023/07/04 00:13:59;;;;;;;11.32;2.88;;;;;;;;;;5018830;28;20046;-74
2023/07/04 00:16:25;;;;;;;13.85;2.97;;;;;;;;;;5019661;28;20042;-74
2023/07/04 00:18:51;;;;;;;14.95;3.25;;;;;;;;;;5017238;28;20076;-74
2023/07/04 00:21:18;;;;;;;11.05;3.00;;;;;;;;;;5018691;28;20077;-73
2023/07/04 00:23:46;;;;;;;11.95;3.20;;;;;;;;;;5018112;28;20048;-73
2023/07/04 00:26:14;;;;;;;12.40;3.00;;;;;;;;;;5018264;28;20484;-74
2023/07/04 00:28:42;;;;;;;11.38;2.90;;;;;;;;;;5021396;28;20420;-74
2023/07/04 00:31:09;;;;;;;12.68;3.30;;;;;;;;;;5017991;28;20569;-74
2023/07/04 00:33:35;;;;;;;11.23;3.00;;;;;;;;;;5020634;28;20038;-73
2023/07/04 00:36:03;;;;;;;8.98;2.67;;;;;;;;;;5018285;28;20094;-74
2023/07/04 00:38:32;;;;;;;14.20;4.13;;;;;;;;;;5017526;28;20057;-73
2023/07/04 00:41:20;;;;;;;13.82;3.67;;;;;;;;;;5017779;28;20124;-73
2023/07/04 00:44:01;;;;;;;14.13;4.05;;;;;;;;;;5018737;28;20092;-73
2023/07/04 00:46:37;;;;;;;18.48;3.70;;;;;;;;;;5015419;28;20081;-73
2023/07/04 00:49:17;;;;;;;13.95;3.85;;;;;;;;;;5018990;28;20053;-74
2023/07/04 00:51:45;;;;;;;13.13;3.60;;;;;;;;;;5016478;28;20077;-73
2023/07/04 00:54:11;;;;;;;15.20;4.20;;;;;;;;;;5019765;28;20049;-73
2023/07/04 00:56:37;;;;;;;14.57;3.75;;;;;;;;;;4985251;28;20051;-73
2023/07/04 00:59:05;;;;;;;18.52;4.30;;;;;;;;;;5019596;28;20564;-74
2023/07/04 01:01:31;;;;;;;14.25;3.47;;;;;;;;;;5018914;28;20526;-72
2023/07/04 01:04:12;;;;;;;14.20;3.80;;;;;;;;;;5099155;27;20401;-74
2023/07/04 01:06:46;;;;;;;14.27;4.18;;;;;;;;;;5134816;27;20056;-74
2023/07/04 01:09:13;;;;;;;17.27;4.07;;;;;;;;;;5104291;28;20052;-73
2023/07/04 01:11:42;;;;;;;19.52;4.40;;;;;;;;;;5117225;28;20047;-74
2023/07/04 01:14:26;;;;;;;14.65;4.72;;;;;;;;;;5101662;28;20082;-73
2023/07/04 01:16:53;;;;;;;12.65;3.80;;;;;;;;;;5114198;28;20043;-73
2023/07/04 01:19:27;;;;;;;13.95;3.92;;;;;;;;;;5101851;28;20059;-74
2023/07/04 01:21:58;;;;;;;16.92;4.18;;;;;;;;;;5097768;28;20041;-73
2023/07/04 01:24:36;;;;;;;12.63;3.55;;;;;;;;;;5105269;28;20040;-73
2023/07/04 01:27:02;;;;;;;17.50;4.18;;;;;;;;;;5108480;28;20068;-74
2023/07/04 01:29:30;;;;;;;17.35;4.20;;;;;;;;;;5110980;28;20040;-73
2023/07/04 01:32:01;;;;;;;16.67;4.35;;;;;;;;;;5105153;28;20047;-74
2023/07/04 01:34:27;;;;;;;;;;;;;;;;;;5109235;28;20044;-73
2023/07/04 01:36:53;;;;;;;13.77;3.97;;;;;;;;;;5107875;28;19973;-74
2023/07/04 01:39:21;;;;;;;12.75;4.38;;;;;;;;;;5102907;28;20051;-74
2023/07/04 01:41:47;;;;;;;13.93;3.55;;;;;;;;;;5108383;28;20060;-74
2023/07/04 01:44:14;;;;;;;15.15;4.60;;;;;;;;;;5098959;28;20483;-73
2023/07/04 01:46:40;;;;;;;17.83;4.43;;;;;;;;;;5109092;28;20154;-73
2023/07/04 01:49:06;;;;;;;14.73;4.05;;;;;;;;;;5104818;28;20067;-74
2023/07/04 01:51:34;;;;;;;15.55;4.57;;;;;;;;;;5102062;28;20036;-74
2023/07/04 01:54:00;;;;;;;14.70;4.35;;;;;;;;;;5107695;28;20036;-74
2023/07/04 01:56:27;;;;;;;13.40;3.88;;;;;;;;;;5099756;28;20520;-75
2023/07/04 01:58:53;;;;;;;15.77;4.32;;;;;;;;;;5104327;28;20079;-73
2023/07/04 02:01:20;;;;;;;15.73;4.47;;;;;;;;;;5109789;28;20052;-73
2023/07/04 02:03:46;;;;;;;14.15;3.88;;;;;;;;;;5114433;28;20123;-73
2023/07/04 02:06:12;;;;;;;15.05;4.50;;;;;;;;;;5108780;28;20490;-73
2023/07/04 02:08:38;;;;;;;13.45;4.57;;;;;;;;;;5096542;28;20072;-73
2023/07/04 02:11:04;;;;;;;18.38;4.22;;;;;;;;;;5096490;28;20044;-73
2023/07/04 02:13:30;;;;;;;16.23;4.55;;;;;;;;;;5102859;28;20041;-73
2023/07/04 02:15:56;;;;;;;20.65;4.70;;;;;;;;;;5099093;28;20043;-73
2023/07/04 02:18:22;;;;;;;11.23;4.20;;;;;;;;;;5098398;28;20051;-73
2023/07/04 02:20:49;;;;;;;12.90;3.95;;;;;;;;;;5094369;28;20036;-73
2023/07/04 02:23:15;;;;;;;17.08;4.68;;;;;;;;;;5094238;28;20040;-73
2023/07/04 02:25:41;;;;;;;16.25;4.78;;;;;;;;;;5101716;28;20413;-73
2023/07/04 02:28:07;;;;;;;20.23;5.28;;;;;;;;;;5083208;28;20044;-73
2023/07/04 02:30:33;;;;;;;14.00;4.32;;;;;;;;;;5086537;28;20142;-73
2023/07/04 02:32:59;;;;;;;20.50;4.20;;;;;;;;;;5099923;28;20094;-73
2023/07/04 02:35:27;;;;;;;12.13;4.22;;;;;;;;;;5090115;28;20048;-73
2023/07/04 02:37:53;;;;;;;16.77;4.75;;;;;;;;;;5098529;28;20391;-73
2023/07/04 02:40:19;;;;;;;14.27;4.25;;;;;;;;;;5082838;28;20037;-74
2023/07/04 02:42:45;;;;;;;20.65;5.00;;;;;;;;;;5091055;28;20047;-74
2023/07/04 02:45:11;;;;;;;18.25;4.85;;;;;;;;;;5091368;28;20055;-74
2023/07/04 02:47:37;;;;;;;17.27;4.75;;;;;;;;;;5092463;28;20041;-73
2023/07/04 02:50:04;;;;;;;11.80;4.20;;;;;;;;;;5087442;28;20072;-73
2023/07/04 02:52:30;;;;;;;11.88;4.43;;;;;;;;;;5097023;28;20093;-73
2023/07/04 02:54:56;;;;;;;15.25;5.03;;;;;;;;;;5092859;28;20045;-74
2023/07/04 02:57:23;;;;;;;14.60;4.60;;;;;;;;;;5094584;28;20072;-74
2023/07/04 02:59:49;;;;;;;12.80;3.95;;;;;;;;;;5088351;28;20072;-73
2023/07/04 03:02:15;;;;;;;14.80;4.28;;;;;;;;;;5091757;28;20052;-73
2023/07/04 03:04:41;;;;;;;13.32;4.03;;;;;;;;;;5082126;28;20108;-73
2023/07/04 03:07:08;;;;;;;13.77;4.38;;;;;;;;;;5091463;28;20096;-73
2023/07/04 03:09:34;;;;;;;15.38;4.43;;;;;;;;;;5068847;28;20055;-73
2023/07/04 03:12:01;;;;;;;13.15;4.13;;;;;;;;;;5080799;28;20045;-75
2023/07/04 03:14:27;;;;;;;16.42;4.15;;;;;;;;;;5080096;28;20055;-74
2023/07/04 03:16:53;;;;;;;12.20;3.95;;;;;;;;;;5082028;28;20505;-73
2023/07/04 03:19:20;;;;;;;11.82;3.30;;;;;;;;;;5079988;28;20044;-73
2023/07/04 03:21:47;;;;;;;13.50;4.53;;;;;;;;;;5088725;28;20041;-73
2023/07/04 03:24:13;;;;;;;12.68;4.07;;;;;;;;;;5094421;28;20077;-73
2023/07/04 03:26:40;;;;;;;12.10;3.72;;;;;;;;;;5093933;28;20040;-73
2023/07/04 03:29:07;;;;;;;11.50;4.13;;;;;;;;;;5087495;28;20128;-73
2023/07/04 03:31:33;;;;;;;11.55;3.60;;;;;;;;;;5090387;28;20048;-74
2023/07/04 03:33:59;;;;;;;11.52;3.33;;;;;;;;;;5099125;28;20378;-73
2023/07/04 03:36:25;;;;;;;12.23;4.18;;;;;;;;;;5083267;28;20097;-74
2023/07/04 03:38:51;;;;;;;15.13;4.45;;;;;;;;;;5079741;28;20086;-74
2023/07/04 03:41:18;;;;;;;14.63;4.22;;;;;;;;;;5080764;28;20043;-73
2023/07/04 03:43:44;;;;;;;15.02;4.68;;;;;;;;;;5085958;28;20062;-73
2023/07/04 03:46:10;;;;;;;15.23;4.65;;;;;;;;;;5094290;28;20116;-74
2023/07/04 03:48:36;;;;;;;15.80;4.70;;;;;;;;;;5094363;28;20044;-73
2023/07/04 03:51:02;;;;;;;19.27;4.13;;;;;;;;;;5084834;28;20036;-73
2023/07/04 03:53:29;;;;;;;15.70;4.47;;;;;;;;;;5080946;28;20183;-74
2023/07/04 03:55:55;;;;;;;12.63;4.43;;;;;;;;;;5095258;28;20055;-74
2023/07/04 03:58:23;;;;;;;13.52;4.60;;;;;;;;;;5082618;28;20105;-73
2023/07/04 04:00:51;;;;;;;14.50;4.10;;;;;;;;;;5095191;28;20044;-73
2023/07/04 04:03:17;;;;;;;13.13;3.95;;;;;;;;;;5101486;28;20048;-74
2023/07/04 04:05:44;;;;;;;15.20;4.22;;;;;;;;;;5081561;28;20059;-73
2023/07/04 04:08:10;;;;;;;14.43;4.25;;;;;;;;;;5094699;28;20048;-73
2023/07/04 04:10:55;;;;;;;14.95;4.35;;;;;;;;;;5079024;28;20039;-73
2023/07/04 04:13:39;;;;;;;13.55;4.82;;;;;;;;;;5091074;28;20063;-74
2023/07/04 04:16:18;;;;;;;17.77;5.22;;;;;;;;;;5079899;28;20101;-74
2023/07/04 04:18:44;;;;;;;14.02;4.03;;;;;;;;;;5077494;28;20170;-74
2023/07/04 04:21:10;;;;;;;13.55;4.72;;;;;;;;;;5090786;28;20055;-73
2023/07/04 04:23:36;;;;;;;15.75;4.70;;;;;;;;;;5088138;28;20050;-73
2023/07/04 04:26:03;;;;;;;23.10;5.18;;;;;;;;;;5082368;28;20040;-72
2023/07/04 04:28:29;;;;;;;11.82;4.78;;;;;;;;;;5079853;28;20096;-74
2023/07/04 04:30:55;;;;;;;18.50;4.85;;;;;;;;;;5095426;28;20044;-73
2023/07/04 04:33:22;;;;;;;18.63;5.43;;;;;;;;;;5082453;28;20747;-74
2023/07/04 04:35:48;;;;;;;14.68;4.47;;;;;;;;;;5083064;28;20055;-74
2023/07/04 04:38:14;;;;;;;18.58;5.38;;;;;;;;;;5080974;28;20041;-74
2023/07/04 04:40:40;;;;;;;14.38;4.55;;;;;;;;;;5081311;28;20078;-73
2023/07/04 04:43:08;;;;;;;14.00;5.07;;;;;;;;;;5079032;28;20518;-74
2023/07/04 04:45:34;;;;;;;11.98;4.85;;;;;;;;;;5087268;28;20126;-73
2023/07/04 04:48:01;;;;;;;13.65;4.43;;;;;;;;;;5079725;28;20048;-73
2023/07/04 04:50:31;;;;;;;10.65;4.15;;;;;;;;;;5095483;28;20048;-73
2023/07/04 04:52:58;;;;;;;14.18;4.25;;;;;;;;;;5081011;28;20180;-74
2023/07/04 04:55:24;;;;;;;14.60;3.72;;;;;;;;;;5086833;28;20097;-73
2023/07/04 04:57:50;;;;;;;11.65;4.13;;;;;;;;;;5084610;28;20809;-73
2023/07/04 05:00:17;;;;;;;13.57;4.88;;;;;;;;;;5083753;28;20418;-73
2023/07/04 05:02:44;;;;;;;13.20;4.47;;;;;;;;;;5079489;28;21000;-73
2023/07/04 05:05:11;;;;;;;13.90;4.53;;;;;;;;;;5089085;28;20056;-73
2023/07/04 05:07:37;;;;;;;15.20;4.43;;;;;;;;;;5084396;28;20044;-74
2023/07/04 05:10:04;;;;;;;16.33;4.20;;;;;;;;;;5087382;28;20068;-74
2023/07/04 05:12:30;;;;;;;9.85;3.50;;;;;;;;;;5098290;28;20056;-74
2023/07/04 05:14:57;;;;;;;14.73;4.07;;;;;;;;;;5082216;28;20049;-74
2023/07/04 05:17:23;;;;;;;15.02;4.05;;;;;;;;;;5080664;28;20123;-72
2023/07/04 05:19:50;;;;;;;12.50;3.83;;;;;;;;;;5090374;28;20123;-74
2023/07/04 05:22:19;;;;;;;13.30;4.25;;;;;;;;;;5090072;28;20052;-73
2023/07/04 05:24:46;;;;;;;13.43;4.00;;;;;;;;;;5088698;28;20055;-74
2023/07/04 05:27:12;;;;;;;9.93;3.00;;;;;;;;;;5081115;28;20051;-73
2023/07/04 05:29:38;;;;;;;16.10;4.05;;;;;;;;;;5092516;28;20051;-73
2023/07/04 05:32:04;;;;;;;11.80;3.83;;;;;;;;;;5086017;28;20048;-73
2023/07/04 05:34:31;;;;;;;14.32;3.78;;;;;;;;;;5098848;28;20044;-74
2023/07/04 05:36:57;;;;;;;13.32;3.90;;;;;;;;;;5089796;28;20044;-74
2023/07/04 05:39:23;;;;;;;12.23;3.40;;;;;;;;;;5089041;28;20085;-74
2023/07/04 05:41:49;;;;;;;10.55;3.22;;;;;;;;;;5075869;28;20397;-74
2023/07/04 05:44:17;;;;;;;12.80;3.08;;;;;;;;;;5078555;28;20052;-74
2023/07/04 05:46:43;;;;;;;11.88;3.28;;;;;;;;;;5082454;28;20056;-74
2023/07/04 05:49:09;;;;;;;10.82;2.75;;;;;;;;;;5077819;28;20045;-73
2023/07/04 05:51:35;;;;;;;11.15;2.70;;;;;;;;;;5091055;28;20058;-74
2023/07/04 05:54:01;;;;;;;12.88;3.13;;;;;;;;;;5080614;28;20135;-73
2023/07/04 05:56:28;;;;;;;8.35;2.20;;;;;;;;;;5080195;28;20052;-74
2023/07/04 05:58:58;;;;;;;11.98;2.70;;;;;;;;;;5092468;28;20092;-74
2023/07/04 06:01:26;;;;;;;6.82;1.88;;;;;;;;;;5082199;28;20453;-74
2023/07/04 06:03:53;;;;;;;10.00;2.40;;;;;;;;;;5095399;28;20045;-74
2023/07/04 06:06:24;;;;;;;10.07;2.00;;;;;;;;;;5080994;28;20048;-74
2023/07/04 06:08:51;;;;;;;8.88;2.20;;;;;;;;;;5081195;28;20049;-74
2023/07/04 06:11:18;;;;;;;7.30;1.80;;;;;;;;;;5079254;28;20463;-74
2023/07/04 06:13:44;;;;;;;8.93;2.42;;;;;;;;;;5080739;28;20056;-74
2023/07/04 06:16:10;;;;;;;8.57;1.90;;;;;;;;;;5092415;28;20047;-73
2023/07/04 06:18:37;;;;;;;8.20;2.15;;;;;;;;;;5099712;28;20161;-73
2023/07/04 06:21:10;;;;;;;6.38;1.92;;;;;;;;;;5099777;28;20048;-74
2023/07/04 06:23:37;;;;;;;9.32;1.73;;;;;;;;;;5086509;28;20044;-74
2023/07/04 06:26:03;;;;;;;7.03;1.92;;;;;;;;;;5086376;28;20548;-74
2023/07/04 06:28:29;;;;;;;8.82;1.65;;;;;;;;;;5090969;28;20048;-74
2023/07/04 06:30:55;;;;;;;8.10;2.08;;;;;;;;;;5087433;28;20535;-74
2023/07/04 06:33:22;;;;;;;7.57;1.95;;;;;;;;;;5095986;28;20494;-74
2023/07/04 06:35:48;;;;;;;9.18;1.67;;;;;;;;;;5085001;28;20037;-73
2023/07/04 06:38:14;;;;;;;8.80;1.70;;;;;;;;;;5088664;28;20112;-74
2023/07/04 06:40:41;;;;;;;7.80;1.67;;;;;;;;;;5088202;28;20454;-75
2023/07/04 06:43:07;;;;;;;10.57;1.98;;;;;;;;;;5087681;28;20378;-72
2023/07/04 06:45:35;;;;;;;8.10;2.05;;;;;;;;;;5082056;28;20040;-73
2023/07/04 06:48:01;;;;;;;7.72;2.08;;;;;;;;;;5082888;28;20052;-73
2023/07/04 06:50:30;;;;;;;7.30;1.52;;;;;;;;;;5080449;28;20052;-73
2023/07/04 06:52:56;;;;;;;7.70;1.70;;;;;;;;;;5096472;28;20054;-73
2023/07/04 06:55:22;;;;;;;10.68;1.70;;;;;;;;;;5089105;28;20045;-72
2023/07/04 06:57:48;;;;;;;6.57;1.55;;;;;;;;;;5082482;28;20055;-73
2023/07/04 07:00:15;;;;;;;7.40;1.80;;;;;;;;;;5083368;28;20048;-72
2023/07/04 07:02:41;;;;;;;13.93;1.75;;;;;;;;;;5080946;28;20048;-73
2023/07/04 07:05:07;;;;;;;8.43;1.60;;;;;;;;;;5076339;28;20052;-72
2023/07/04 07:07:33;;;;;;;7.80;1.83;;;;;;;;;;5076838;28;20119;-73
2023/07/04 07:09:59;;;;;;;6.90;1.70;;;;;;;;;;5076335;28;20513;-73
2023/07/04 07:12:25;;;;;;;5.97;1.60;;;;;;;;;;5075999;28;20439;-72
2023/07/04 07:14:51;;;;;;;9.82;2.30;;;;;;;;;;5076522;28;20052;-72
2023/07/04 07:17:18;;;;;;;8.57;1.77;;;;;;;;;;5083200;28;20046;-73
2023/07/04 07:19:44;;;;;;;7.18;1.52;;;;;;;;;;5083951;28;20055;-72
2023/07/04 07:22:10;;;;;;;9.50;1.98;;;;;;;;;;5058573;28;20056;-73
2023/07/04 07:24:36;;;;;;;10.18;1.85;;;;;;;;;;5077585;28;20048;-73
2023/07/04 07:27:03;;;;;;;8.05;1.65;;;;;;;;;;5080370;28;20170;-73
2023/07/04 07:29:29;;;;;;;7.40;1.65;;;;;;;;;;5090362;28;20074;-73
2023/07/04 07:31:55;;;;;;;8.57;1.70;;;;;;;;;;5082289;28;20037;-73
2023/07/04 07:34:21;;;;;;;8.45;1.58;;;;;;;;;;5087134;28;20055;-73
2023/07/04 07:36:48;;;;;;;9.70;2.55;;;;;;;;;;5080447;28;21195;-74
2023/07/04 07:39:15;;;;;;;8.85;2.10;;;;;;;;;;5094296;28;20485;-73
2023/07/04 07:41:46;;;;;;;6.88;2.10;;;;;;;;;;5090029;28;20042;-72
2023/07/04 07:44:13;;;;;;;10.20;3.22;;;;;;;;;;5075984;28;20089;-73
2023/07/04 07:46:40;;;;;;;9.07;2.05;;;;;;;;;;5093636;28;20048;-73
2023/07/04 07:49:06;;;;;;;6.43;1.55;;;;;;;;;;5094998;28;20106;-73
2023/07/04 07:51:32;;;;;;;9.35;2.13;;;;;;;;;;5079671;28;20044;-73
2023/07/04 07:53:59;;;;;;;7.55;2.08;;;;;;;;;;5076299;28;20048;-72
2023/07/04 07:56:27;;;;;;;9.15;1.90;;;;;;;;;;5076162;28;20033;-73
2023/07/04 07:58:53;;;;;;;7.85;1.80;;;;;;;;;;5075409;28;20127;-73
2023/07/04 08:01:21;;;;;;;13.18;3.25;;;;;;;;;;5087783;28;20060;-74
2023/07/04 08:03:47;;;;;;;7.95;1.67;;;;;;;;;;5096425;28;20394;-74
2023/07/04 08:06:39;;;;;;;7.85;1.75;;;;;;;;;;5085965;28;20402;-74
2023/07/04 08:09:07;;;;;;;7.18;1.80;;;;;;;;;;5085893;28;20054;-72
2023/07/04 08:11:33;;;;;;;9.02;1.58;;;;;;;;;;5085467;28;20174;-74
2023/07/04 08:13:59;;;;;;;5.28;1.60;;;;;;;;;;5078225;28;20049;-75
2023/07/04 08:16:30;;;;;;;8.05;1.58;;;;;;;;;;5096223;28;20044;-73
2023/07/04 08:19:00;;;;;;;6.28;1.58;;;;;;;;;;5092150;28;20095;-73
2023/07/04 08:21:27;;;;;;;7.05;1.50;;;;;;;;;;5081996;28;20064;-72
2023/07/04 08:23:54;;;;;;;6.75;2.00;;;;;;;;;;5076887;28;20080;-73
2023/07/04 08:26:21;;;;;;;8.30;1.70;;;;;;;;;;5090640;28;20136;-74
2023/07/04 08:28:47;;;;;;;7.88;1.70;;;;;;;;;;5080223;28;20067;-72
2023/07/04 08:31:17;;;;;;;8.73;1.95;;;;;;;;;;5092668;28;20048;-74
2023/07/04 08:33:44;;;;;;;8.75;1.85;;;;;;;;;;5065826;28;20127;-73
2023/07/04 08:36:10;;;;;;;6.20;1.60;;;;;;;;;;5094272;28;20075;-74
2023/07/04 08:38:36;;;;;;;8.45;1.98;;;;;;;;;;5097005;28;20048;-73
2023/07/04 08:41:02;;;;;;;8.10;2.13;;;;;;;;;;5076894;28;20098;-73
2023/07/04 08:43:39;;;;;;;8.93;1.85;;;;;;;;;;5075004;28;20045;-73
2023/07/04 08:46:06;;;;;;;7.10;1.70;;;;;;;;;;5084314;28;20052;-74
2023/07/04 08:48:33;;;;;;;7.80;1.98;;;;;;;;;;5095003;28;20044;-73
2023/07/04 08:51:00;;;;;;;8.20;2.20;;;;;;;;;;5093628;28;20044;-74
2023/07/04 08:53:26;;;;;;;10.07;2.03;;;;;;;;;;5076261;28;20066;-73
2023/07/04 08:56:06;;;;;;;11.80;2.55;;;;;;;;;;5083026;28;20478;-73
2023/07/04 08:58:36;;;;;;;13.85;2.60;;;;;;;;;;5082555;28;20044;-73
2023/07/04 09:01:03;;;;;;;14.85;5.05;;;;;;;;;;5075446;28;20059;-74
2023/07/04 09:03:41;;;;;;;11.55;2.65;;;;;;;;;;5085577;28;20106;-74
2023/07/04 09:06:19;;;;;;;8.45;1.88;;;;;;;;;;5092884;28;20147;-73
2023/07/04 09:09:12;;;;;;;12.48;2.47;;;;;;;;;;5090638;28;20052;-73
2023/07/04 09:11:38;;;;;;;9.68;2.35;;;;;;;;;;5081753;28;20061;-73
2023/07/04 09:14:08;;;;;;;10.45;2.33;;;;;;;;;;5073071;28;20047;-72
2023/07/04 09:16:38;;;;;;;13.50;2.90;;;;;;;;;;5105805;28;20096;-73
2023/07/04 09:19:06;;;;;;;11.52;2.28;;;;;;;;;;5084126;28;20075;-73
2023/07/04 09:21:32;;;;;;;12.90;2.53;;;;;;;;;;5081612;28;20044;-73
2023/07/04 09:24:04;;;;;;;11.82;2.03;;;;;;;;;;5076825;28;20036;-72
2023/07/04 09:26:30;;;;;;;;;;;;;;;;;;5094273;28;20049;-74
2023/07/04 09:29:00;;;;;;;12.85;2.90;;;;;;;;;;5084434;28;19983;-74
2023/07/04 09:31:29;;;;;;;11.63;2.38;;;;;;;;;;5092582;28;20071;-74
2023/07/04 09:33:55;;;;;;;13.45;2.63;;;;;;;;;;5085842;28;20115;-74
2023/07/04 09:36:26;;;;;;;12.23;3.03;;;;;;;;;;5091794;28;20062;-73
2023/07/04 09:38:53;;;;;;;8.63;2.20;;;;;;;;;;5094213;28;20594;-73
2023/07/04 09:41:20;;;;;;;9.73;2.72;;;;;;;;;;5090385;28;20067;-72
2023/07/04 09:43:46;;;;;;;11.10;2.50;;;;;;;;;;5088814;28;20088;-73
2023/07/04 09:46:29;;;;;;;12.02;2.58;;;;;;;;;;5083202;28;20047;-72
2023/07/04 09:48:56;;;;;;;10.95;2.83;;;;;;;;;;5095268;28;20051;-72
2023/07/04 09:51:25;;;;;;;9.43;2.30;;;;;;;;;;5100144;28;20052;-72
2023/07/04 09:53:51;;;;;;;13.93;2.25;;;;;;;;;;5099924;28;20378;-71
2023/07/04 09:56:27;;;;;;;14.32;2.53;;;;;;;;;;5098839;28;20066;-71
2023/07/04 09:59:11;;;;;;;9.35;1.83;;;;;;;;;;5090495;28;20044;-72
2023/07/04 10:01:39;;;;;;;9.93;2.58;;;;;;;;;;5082993;28;20067;-71
2023/07/04 10:04:07;;;;;;;9.10;2.25;;;;;;;;;;5078646;28;20052;-75
2023/07/04 10:06:33;;;;;;;9.13;1.70;;;;;;;;;;5081318;28;20053;-73
2023/07/04 10:09:00;;;;;;;8.40;2.45;;;;;;;;;;5095739;28;20044;-73
2023/07/04 10:11:35;;;;;;;7.00;2.20;;;;;;;;;;5099382;28;20047;-74
2023/07/04 10:14:04;;;;;;;8.35;2.00;;;;;;;;;;5089595;28;20038;-72
2023/07/04 10:16:30;;;;;;;11.85;2.55;;;;;;;;;;5095962;28;20048;-72
2023/07/04 10:19:03;;;;;;;11.80;2.90;;;;;;;;;;5099552;28;20108;-72
2023/07/04 10:21:29;;;;;;;11.20;2.45;;;;;;;;;;5100886;28;20051;-73
2023/07/04 10:23:55;;;;;;;11.45;2.70;;;;;;;;;;5086161;28;20033;-73
2023/07/04 10:26:21;;;;;;;11.40;2.67;;;;;;;;;;5095380;28;20040;-73
2023/07/04 10:28:48;;;;;;;10.55;2.58;;;;;;;;;;5088859;28;20052;-73
2023/07/04 10:31:18;;;;;;;8.52;2.00;;;;;;;;;;5093358;28;20110;-74
2023/07/04 10:33:47;;;;;;;12.38;2.50;;;;;;;;;;5088084;28;20049;-73
2023/07/04 10:36:14;;;;;;;9.18;2.28;;;;;;;;;;5092241;28;20043;-72
2023/07/04 10:38:42;;;;;;;11.93;1.98;;;;;;;;;;5084825;28;20041;-73
2023/07/04 10:41:21;;;;;;;9.65;2.38;;;;;;;;;;5091864;28;20072;-73
2023/07/04 10:43:49;;;;;;;9.18;2.20;;;;;;;;;;5086525;28;20040;-72
2023/07/04 10:46:19;;;;;;;8.73;2.28;;;;;;;;;;5094363;28;20040;-73
2023/07/04 10:48:47;;;;;;;9.52;2.17;;;;;;;;;;5083942;28;20052;-72
2023/07/04 10:51:20;;;;;;;7.38;2.33;;;;;;;;;;5086804;28;20054;-73
2023/07/04 10:53:46;;;;;;;8.38;2.03;;;;;;;;;;5085890;28;20048;-72
2023/07/04 10:56:15;;;;;;;10.80;2.75;;;;;;;;;;5086169;28;20162;-72
2023/07/04 10:58:43;;;;;;;9.70;2.15;;;;;;;;;;5090017;28;20051;-73
2023/07/04 11:01:36;;;;;;;10.02;2.33;;;;;;;;;;5085804;28;20052;-73
2023/07/04 11:04:09;;;;;;;10.20;2.42;;;;;;;;;;5088475;28;20491;-72
2023/07/04 11:06:40;;;;;;;9.18;2.53;;;;;;;;;;5090289;28;20040;-72
2023/07/04 11:09:07;;;;;;;;;;;;;;;;;;5087947;28;20040;-73
2023/07/04 11:11:34;;;;;;;9.65;2.47;;;;;;;;;;5088592;28;19946;-73
2023/07/04 11:14:06;;;;;;;12.10;2.58;;;;;;;;;;5083187;28;20413;-71
2023/07/04 11:16:34;;;;;;;12.75;2.55;;;;;;;;;;5087881;28;20044;-73
2023/07/04 11:19:08;;;;;;;10.80;2.78;;;;;;;;;;5088629;28;20057;-74
2023/07/04 11:21:53;;;;;;;12.38;2.50;;;;;;;;;;5090785;28;20144;-73
2023/07/04 11:24:19;;;;;;;10.73;2.80;;;;;;;;;;5089196;28;20088;-72
2023/07/04 11:26:50;;;;;;;12.63;2.67;;;;;;;;;;5095938;28;20044;-73
2023/07/04 11:29:18;;;;;;;9.70;2.25;;;;;;;;;;5092954;28;20048;-74
2023/07/04 11:32:03;;;;;;;9.70;2.47;;;;;;;;;;5063996;28;20051;-74
2023/07/04 11:34:43;;;;;;;9.32;2.38;;;;;;;;;;5083451;28;20553;-74
2023/07/04 11:37:09;;;;;;;15.07;2.70;;;;;;;;;;5085519;28;20079;-74
2023/07/04 11:39:36;;;;;;;13.50;2.50;;;;;;;;;;5101982;28;20052;-74
2023/07/04 11:42:29;;;;;;;9.50;2.10;;;;;;;;;;5082842;28;20494;-73
2023/07/04 11:45:05;;;;;;;12.50;2.70;;;;;;;;;;5090672;28;20059;-73
2023/07/04 11:47:42;;;;;;;9.25;2.35;;;;;;;;;;5068144;28;20048;-75
2023/07/04 11:50:11;;;;;;;12.55;2.40;;;;;;;;;;5087731;28;20048;-74
2023/07/04 11:52:40;;;;;;;12.75;2.28;;;;;;;;;;5095624;28;20045;-75
2023/07/04 11:55:17;;;;;;;10.88;2.35;;;;;;;;;;5087407;28;20040;-75
2023/07/04 11:57:59;;;;;;;11.57;2.33;;;;;;;;;;5105364;28;20044;-75
2023/07/04 12:00:31;;;;;;;11.80;2.80;;;;;;;;;;5092873;28;20171;-75
2023/07/04 12:03:17;;;;;;;11.30;2.28;;;;;;;;;;5095815;28;20115;-74
2023/07/04 12:05:49;;;;;;;9.90;2.38;;;;;;;;;;5090104;28;20049;-75
2023/07/04 12:08:22;;;;;;;10.20;2.80;;;;;;;;;;5088779;28;20035;-75
2023/07/04 12:10:48;;;;;;;10.25;2.92;;;;;;;;;;5082949;28;20052;-75
2023/07/04 12:13:18;;;;;;;12.60;2.67;;;;;;;;;;5083743;28;20040;-75
2023/07/04 12:15:48;;;;;;;13.65;2.97;;;;;;;;;;5082786;28;20108;-74
2023/07/04 12:18:28;;;;;;;11.27;3.08;;;;;;;;;;5090909;28;20055;-75
2023/07/04 12:20:55;;;;;;;11.15;2.83;;;;;;;;;;5082706;28;20039;-74
2023/07/04 12:23:21;;;;;;;9.75;2.72;;;;;;;;;;5090288;28;20036;-74
2023/07/04 12:25:51;;;;;;;11.10;2.28;;;;;;;;;;5085633;28;20043;-74
2023/07/04 12:28:18;;;;;;;11.50;2.42;;;;;;;;;;5085396;28;20052;-74
2023/07/04 12:30:56;;;;;;;11.70;2.83;;;;;;;;;;5086255;28;20056;-75
2023/07/04 12:33:24;;;;;;;10.18;2.47;;;;;;;;;;5094420;28;20053;-74
2023/07/04 12:35:58;;;;;;;9.88;2.53;;;;;;;;;;5102334;28;20044;-74
2023/07/04 12:38:26;;;;;;;12.50;2.60;;;;;;;;;;5097306;28;20059;-75
2023/07/04 12:40:52;;;;;;;13.50;2.42;;;;;;;;;;5091029;28;20052;-74
2023/07/04 12:43:18;;;;;;;9.88;2.40;;;;;;;;;;5092349;28;20044;-75
2023/07/04 12:45:45;;;;;;;14.40;3.20;;;;;;;;;;5093455;28;20067;-75
2023/07/04 12:48:12;;;;;;;9.57;2.45;;;;;;;;;;5096966;28;20036;-75
2023/07/04 12:50:58;;;;;;;14.20;2.83;;;;;;;;;;5097072;28;20043;-75
2023/07/04 12:53:24;;;;;;;10.63;2.67;;;;;;;;;;5091678;28;20618;-74
2023/07/04 12:55:51;;;;;;;9.98;2.50;;;;;;;;;;5085480;28;20101;-75
2023/07/04 12:58:17;;;;;;;11.82;2.63;;;;;;;;;;5090506;28;20040;-75
2023/07/04 13:00:44;;;;;;;11.65;2.33;;;;;;;;;;5089137;28;20485;-75
2023/07/04 13:03:12;;;;;;;10.02;2.58;;;;;;;;;;5090079;28;20098;-75
2023/07/04 13:05:42;;;;;;;9.50;2.33;;;;;;;;;;5085179;28;20056;-74
2023/07/04 13:08:15;;;;;;;7.50;2.03;;;;;;;;;;5089253;28;20102;-73
2023/07/04 13:10:41;;;;;;;10.52;2.17;;;;;;;;;;5095844;28;20054;-74
2023/07/04 13:13:22;;;;;;;10.95;2.70;;;;;;;;;;5093264;28;20051;-75
2023/07/04 13:15:48;;;;;;;10.18;2.03;;;;;;;;;;5093173;28;20118;-74
2023/07/04 13:18:14;;;;;;;10.52;2.13;;;;;;;;;;5094028;28;20786;-73
2023/07/04 13:20:55;;;;;;;10.45;2.42;;;;;;;;;;5087399;28;20048;-74
2023/07/04 13:23:22;;;;;;;8.05;1.95;;;;;;;;;;5084448;28;20052;-73
2023/07/04 13:25:50;;;;;;;7.63;1.70;;;;;;;;;;5087712;28;20040;-74
2023/07/04 13:28:24;;;;;;;7.68;1.70;;;;;;;;;;5088089;28;20076;-74
2023/07/04 13:30:50;;;;;;;7.72;1.98;;;;;;;;;;5090728;28;20044;-74
2023/07/04 13:33:30;;;;;;;8.60;2.00;;;;;;;;;;5090005;28;20049;-74
2023/07/04 13:36:06;;;;;;;11.05;2.10;;;;;;;;;;5095995;28;20040;-74
2023/07/04 13:38:32;;;;;;;11.73;2.08;;;;;;;;;;5093539;28;20074;-74
2023/07/04 13:41:00;;;;;;;13.00;2.33;;;;;;;;;;5095943;28;20038;-73
2023/07/04 13:43:27;;;;;;;10.15;2.03;;;;;;;;;;5085740;28;20037;-74
2023/07/04 13:45:53;;;;;;;9.70;2.28;;;;;;;;;;5089383;28;20057;-74
2023/07/04 13:48:19;;;;;;;10.70;2.00;;;;;;;;;;5095936;28;20040;-74
2023/07/04 13:50:45;;;;;;;11.27;2.10;;;;;;;;;;5094885;28;20037;-73
2023/07/04 13:53:11;;;;;;;9.65;2.40;;;;;;;;;;5088116;28;20044;-74
2023/07/04 13:55:37;;;;;;;9.77;2.78;;;;;;;;;;5087979;28;20100;-74
2023/07/04 13:58:03;;;;;;;11.45;2.30;;;;;;;;;;5087078;28;20513;-74
2023/07/04 14:00:29;;;;;;;9.70;2.28;;;;;;;;;;5091395;28;20046;-73
2023/07/04 14:02:55;;;;;;;9.88;2.50;;;;;;;;;;5086706;28;20052;-75
2023/07/04 14:05:21;;;;;;;8.07;2.28;;;;;;;;;;5088374;28;20040;-74
2023/07/04 14:07:48;;;;;;;14.18;4.43;;;;;;;;;;5086480;28;20123;-74
2023/07/04 14:10:14;;;;;;;10.57;2.47;;;;;;;;;;5085638;28;20056;-74
2023/07/04 14:12:41;;;;;;;7.80;2.08;;;;;;;;;;5091669;28;20494;-74
2023/07/04 14:15:08;;;;;;;13.73;2.90;;;;;;;;;;5092079;28;20049;-74
2023/07/04 14:17:34;;;;;;;9.85;2.67;;;;;;;;;;5093619;28;20033;-74
2023/07/04 14:20:00;;;;;;;13.82;3.08;;;;;;;;;;5091892;28;20048;-74
2023/07/04 14:22:26;;;;;;;11.10;3.05;;;;;;;;;;5096599;28;20055;-75
2023/07/04 14:24:52;;;;;;;10.85;3.20;;;;;;;;;;5097302;28;20047;-75
2023/07/04 14:27:18;;;;;;;11.05;2.78;;;;;;;;;;5092312;28;20050;-73
2023/07/04 14:29:44;;;;;;;12.65;3.08;;;;;;;;;;5088817;28;20052;-73
2023/07/04 14:32:10;;;;;;;14.45;3.10;;;;;;;;;;5097050;28;20051;-73
2023/07/04 14:34:37;;;;;;;11.38;3.15;;;;;;;;;;5088818;28;20126;-74
2023/07/04 14:37:03;;;;;;;12.07;3.30;;;;;;;;;;5089497;28;20107;-74
2023/07/04 14:39:29;;;;;;;9.55;2.90;;;;;;;;;;5095077;28;20044;-74
2023/07/04 14:41:58;;;;;;;9.43;2.47;;;;;;;;;;5091645;28;20072;-74
2023/07/04 14:44:24;;;;;;;14.05;2.53;;;;;;;;;;5088509;28;20093;-74